Time;durP1;ratioP1;P1;durP2;ratioP2;P2;SDS_P1;SDS_P2;PMS_P1;PMS_P2;Temp;Humidity;BMP_temperature;BMP_pressure;BME280_temperature;BME280_humidity;BME280_pressure;Samples;Min_cycle;Max_cycle;Signal;HPM_P1;HPM_P2
2022/01/06 00:02:21;;;;;;;18.08;3.85;;;;;;;2.89;95.69;101491.69;5085760;28;20039;-82
2022/01/06 00:04:47;;;;;;;20.33;3.88;;;;;;;2.86;95.33;101502.19;5071477;28;20039;-84
2022/01/06 00:07:12;;;;;;;21.48;3.78;;;;;;;2.85;94.86;101508.28;5091911;28;20028;-84
2022/01/06 00:09:37;;;;;;;18.73;3.85;;;;;;;2.82;95.64;101495.41;5086955;28;20478;-83
2022/01/06 00:12:03;;;;;;;20.83;4.03;;;;;;;2.80;95.82;101502.34;5091317;28;20036;-82
2022/01/06 00:14:54;;;;;;;17.50;3.90;;;;;;;2.79;95.78;101505.84;5075537;28;20404;-84
2022/01/06 00:23:20;;;;;;;15.75;4.13;;;;;;;2.69;95.47;101509.63;5088475;28;20165;-84
2022/01/06 00:25:45;;;;;;;20.02;4.03;;;;;;;2.64;95.53;101508.94;5081714;28;20043;-84
2022/01/06 00:28:14;;;;;;;23.70;3.92;;;;;;;2.59;94.91;101510.81;5096722;28;20412;-84
2022/01/06 00:30:39;;;;;;;19.02;3.80;;;;;;;2.56;95.54;101509.19;5088139;28;20107;-84
2022/01/06 00:33:06;;;;;;;20.25;4.10;;;;;;;2.56;95.48;101513.53;5080915;28;20127;-85
2022/01/06 00:35:31;;;;;;;21.98;4.47;;;;;;;2.53;95.79;101516.22;5088923;28;20325;-85
2022/01/06 00:37:57;;;;;;;19.77;4.55;;;;;;;2.48;95.52;101525.00;5089105;28;20028;-83
2022/01/06 00:40:23;;;;;;;17.25;4.40;;;;;;;2.46;95.43;101523.34;5088364;28;20035;-83
2022/01/06 00:42:48;;;;;;;19.70;4.20;;;;;;;2.39;95.53;101522.63;5088365;28;20020;-82
2022/01/06 00:45:13;;;;;;;21.63;3.63;;;;;;;2.39;95.39;101538.22;5088975;28;20024;-82
2022/01/06 00:47:39;;;;;;;15.93;4.03;;;;;;;2.36;95.12;101537.47;5086706;28;20480;-82
2022/01/06 00:50:05;;;;;;;19.25;3.72;;;;;;;2.32;95.18;101530.66;5086326;28;20059;-82
2022/01/06 00:52:30;;;;;;;17.90;3.60;;;;;;;2.30;95.88;101538.50;5095347;28;20395;-82
2022/01/06 00:54:57;;;;;;;20.83;4.32;;;;;;;2.26;95.57;101536.03;5070314;28;20172;-82
2022/01/06 00:57:22;;;;;;;20.58;4.30;;;;;;;2.25;95.02;101534.34;5088059;28;20110;-82
2022/01/06 00:59:48;;;;;;;21.35;4.03;;;;;;;2.25;94.97;101535.19;5084710;28;20177;-82
2022/01/06 01:02:13;;;;;;;26.05;4.30;;;;;;;2.24;95.41;101532.63;5082270;28;20455;-83
2022/01/06 01:04:38;;;;;;;20.10;3.80;;;;;;;2.23;95.48;101541.31;5087598;28;20036;-83
2022/01/06 01:07:04;;;;;;;20.92;3.40;;;;;;;2.24;95.55;101537.81;5087279;28;20024;-83
2022/01/06 01:09:31;;;;;;;18.33;4.15;;;;;;;2.20;95.89;101537.06;5087507;28;20032;-82
2022/01/06 01:12:01;;;;;;;23.80;4.57;;;;;;;2.15;95.12;101541.53;5069072;28;20036;-82
2022/01/06 01:14:29;;;;;;;21.98;4.35;;;;;;;2.12;95.48;101544.22;5100054;28;20024;-83
2022/01/06 01:16:58;;;;;;;21.60;4.22;;;;;;;2.09;95.04;101541.72;5084916;28;20158;-83
2022/01/06 01:19:25;;;;;;;23.20;4.35;;;;;;;2.08;94.73;101542.59;5087678;28;20023;-82
2022/01/06 01:21:51;;;;;;;29.50;4.22;;;;;;;2.04;95.28;101541.84;5089741;28;20036;-82
2022/01/06 01:24:16;;;;;;;14.75;3.50;;;;;;;2.03;95.22;101536.69;5089716;28;20031;-83
2022/01/06 01:26:42;;;;;;;23.17;4.28;;;;;;;2.01;94.52;101543.66;5089163;28;20107;-82
2022/01/06 01:29:15;;;;;;;19.60;4.40;;;;;;;1.98;95.29;101541.13;5089055;28;20020;-83
2022/01/06 01:31:48;;;;;;;18.30;3.80;;;;;;;1.94;94.70;101544.69;5088582;28;20118;-82
2022/01/06 01:34:15;;;;;;;22.13;4.75;;;;;;;1.92;95.55;101546.50;5087071;28;20047;-82
2022/01/06 01:36:44;;;;;;;22.80;4.15;;;;;;;1.88;95.58;101549.16;5088105;28;20036;-82
2022/01/06 01:39:10;;;;;;;17.48;3.92;;;;;;;1.84;95.63;101549.28;5089715;28;20027;-83
2022/01/06 01:41:35;;;;;;;21.40;4.47;;;;;;;1.82;95.05;101557.13;5089514;28;20391;-83
2022/01/06 01:44:01;;;;;;;19.50;3.72;;;;;;;1.80;94.64;101561.50;5076978;28;20390;-82
2022/01/06 01:46:30;;;;;;;19.60;4.22;;;;;;;1.73;95.35;101557.38;5068564;28;20032;-82
2022/01/06 01:51:42;;;;;;;20.55;3.70;;;;;;;1.73;95.31;101572.94;5071999;28;20152;-82
2022/01/06 01:54:08;;;;;;;20.30;4.05;;;;;;;1.71;95.88;101572.13;5069117;28;20021;-82
2022/01/06 01:56:34;;;;;;;20.15;3.92;;;;;;;1.73;95.48;101587.66;5067027;28;20130;-83
2022/01/06 01:59:00;;;;;;;20.92;4.00;;;;;;;1.71;95.57;101589.44;5079708;28;20495;-82
2022/01/06 02:01:25;;;;;;;15.07;3.63;;;;;;;1.70;95.70;101598.94;5084886;28;20043;-83
2022/01/06 02:03:50;;;;;;;18.05;3.63;;;;;;;1.66;95.76;101591.28;5089365;28;20030;-82
2022/01/06 02:06:16;;;;;;;17.55;3.63;;;;;;;1.64;95.26;101599.09;5087357;28;20100;-83
2022/01/06 02:08:41;;;;;;;18.13;3.65;;;;;;;1.60;95.46;101602.63;5078660;28;20051;-83
2022/01/06 02:11:07;;;;;;;23.02;3.58;;;;;;;1.56;96.03;101601.88;5089105;28;20027;-83
2022/01/06 02:13:32;;;;;;;24.40;3.80;;;;;;;1.55;95.46;101604.50;5088382;28;20042;-83
2022/01/06 02:16:00;;;;;;;18.30;3.72;;;;;;;1.49;95.37;101594.28;5082776;28;20021;-82
2022/01/06 02:18:28;;;;;;;17.30;3.58;;;;;;;1.48;95.53;101602.94;5068286;28;20107;-82
2022/01/06 02:20:53;;;;;;;24.05;3.60;;;;;;;1.46;95.76;101594.34;5071607;28;20024;-85
2022/01/06 02:23:21;;;;;;;23.08;3.55;;;;;;;1.46;96.14;101604.72;5071591;28;20032;-82
2022/01/06 02:25:47;;;;;;;23.58;4.07;;;;;;;1.42;95.17;101597.91;5096322;28;20016;-84
2022/01/06 02:28:12;;;;;;;24.77;4.20;;;;;;;1.41;95.57;101604.84;5091578;28;20118;-83
2022/01/06 02:30:38;;;;;;;22.08;3.63;;;;;;;1.39;96.40;101608.34;5087766;28;20024;-83
2022/01/06 02:33:05;;;;;;;20.20;3.85;;;;;;;1.38;95.77;101609.25;5108877;28;20040;-82
2022/01/06 02:35:31;;;;;;;20.73;3.50;;;;;;;1.33;95.83;101608.50;5092069;28;20028;-83
2022/01/06 02:37:57;;;;;;;15.65;3.60;;;;;;;1.35;96.17;101612.78;5074638;28;20028;-83
2022/01/06 02:40:25;;;;;;;20.35;3.92;;;;;;;1.32;95.57;101612.00;5073000;28;20064;-83
2022/01/06 02:42:54;;;;;;;23.00;3.63;;;;;;;1.31;95.16;101608.53;5076464;28;20016;-82
2022/01/06 02:45:23;;;;;;;17.73;3.70;;;;;;;1.27;95.89;101608.66;5083951;28;20496;-83
2022/01/06 02:47:48;;;;;;;21.63;3.58;;;;;;;1.28;95.29;101618.13;5072778;28;20029;-83
2022/01/06 02:50:15;;;;;;;19.80;3.92;;;;;;;1.24;95.83;101601.81;5071919;28;20027;-83
2022/01/06 02:52:41;;;;;;;25.60;3.75;;;;;;;1.24;96.11;101605.25;5072144;28;20111;-83
2022/01/06 02:55:09;;;;;;;19.90;4.15;;;;;;;1.22;95.87;101604.44;5072673;28;20552;-83
2022/01/06 02:57:36;;;;;;;19.83;3.42;;;;;;;1.23;96.12;101613.91;5071435;28;20112;-84
2022/01/06 03:00:07;;;;;;;18.05;3.75;;;;;;;1.22;95.75;101614.81;5085107;28;20024;-83
2022/01/06 03:02:32;;;;;;;24.42;3.70;;;;;;;1.22;95.93;101614.81;5087817;28;20632;-83
2022/01/06 03:04:57;;;;;;;22.63;3.60;;;;;;;1.21;95.96;101609.66;5089866;28;20035;-83
2022/01/06 03:07:22;;;;;;;23.75;3.83;;;;;;;1.23;96.79;101613.06;5106576;28;20586;-83
2022/01/06 03:09:54;;;;;;;18.85;3.83;;;;;;;1.22;96.36;101613.94;5092115;28;20027;-83
2022/01/06 03:12:28;;;;;;;21.60;3.85;;;;;;;1.23;96.33;101613.06;5095620;28;20038;-83
2022/01/06 03:14:53;;;;;;;23.35;3.30;;;;;;;1.21;96.23;101614.84;5088567;28;20059;-83
2022/01/06 03:17:22;;;;;;;23.70;4.07;;;;;;;1.22;96.13;101617.41;5081110;28;20025;-83
2022/01/06 03:19:47;;;;;;;27.92;3.78;;;;;;;1.18;96.51;101620.91;5090536;28;20024;-83
2022/01/06 03:22:13;;;;;;;29.45;4.10;;;;;;;1.21;96.35;101628.66;5078519;28;20051;-83
2022/01/06 03:24:39;;;;;;;26.48;3.95;;;;;;;1.18;96.04;101620.91;5071078;28;20095;-83
2022/01/06 03:27:04;;;;;;;25.10;4.00;;;;;;;1.17;95.82;101629.56;5071197;28;20024;-83
2022/01/06 03:29:30;;;;;;;21.33;3.42;;;;;;;1.15;95.85;101636.53;5086704;28;20039;-83
2022/01/06 03:31:55;;;;;;;20.55;3.50;;;;;;;1.16;96.21;101642.56;5082972;28;20044;-83
2022/01/06 03:34:21;;;;;;;24.90;3.75;;;;;;;1.13;96.14;101638.31;5078559;28;20113;-83
2022/01/06 03:36:46;;;;;;;23.48;3.58;;;;;;;1.15;96.10;101640.88;5091370;28;20024;-83
2022/01/06 03:39:12;;;;;;;18.17;3.50;;;;;;;1.13;96.29;101651.28;5090554;28;20027;-83
2022/01/06 03:41:37;;;;;;;16.88;3.58;;;;;;;1.13;96.62;101648.69;5092098;28;20027;-83
2022/01/06 03:44:03;;;;;;;19.35;3.28;;;;;;;1.12;96.36;101649.56;5079420;28;20097;-83
2022/01/06 03:46:28;;;;;;;21.65;4.05;;;;;;;1.11;95.96;101650.44;5070630;28;20017;-84
2022/01/06 03:48:54;;;;;;;23.55;3.95;;;;;;;1.11;96.56;101655.63;5087253;28;20119;-83
2022/01/06 03:51:23;;;;;;;27.92;3.95;;;;;;;1.13;96.55;101659.03;5089843;28;20487;-83
2022/01/06 03:53:50;;;;;;;21.05;3.70;;;;;;;1.13;96.50;101656.44;5091121;28;20043;-83
2022/01/06 03:56:16;;;;;;;23.45;4.03;;;;;;;1.15;96.44;101652.09;5091472;28;20095;-83
2022/01/06 03:58:41;;;;;;;20.88;3.38;;;;;;;1.11;96.40;101650.44;5090030;28;20119;-83
2022/01/06 04:01:07;;;;;;;22.58;3.75;;;;;;;1.15;96.81;101653.81;5084832;28;20052;-83
2022/01/06 04:03:33;;;;;;;22.45;3.78;;;;;;;1.12;95.81;101651.31;5089876;28;20499;-83
2022/01/06 04:05:58;;;;;;;23.98;3.55;;;;;;;1.14;96.98;101645.19;5089344;28;20023;-83
2022/01/06 04:08:23;;;;;;;16.58;3.58;;;;;;;1.13;96.78;101653.84;5087407;28;20024;-83
2022/01/06 04:10:49;;;;;;;20.25;3.25;;;;;;;1.10;96.24;101645.31;5085208;28;20023;-83
2022/01/06 04:13:14;;;;;;;23.70;3.75;;;;;;;1.10;96.80;101653.94;5075195;28;20119;-83
2022/01/06 04:15:40;;;;;;;19.80;3.22;;;;;;;1.09;96.56;101651.38;5082869;28;20036;-83
2022/01/06 04:18:05;;;;;;;21.75;3.83;;;;;;;1.05;96.44;101650.59;5070538;28;20029;-83
2022/01/06 04:20:30;;;;;;;19.08;3.33;;;;;;;1.05;96.16;101660.97;5074295;28;20262;-83
2022/01/06 04:22:56;;;;;;;22.67;3.60;;;;;;;1.06;96.67;101659.22;5089191;28;20024;-83
2022/01/06 04:25:21;;;;;;;26.67;3.50;;;;;;;1.05;97.11;101671.31;5076159;28;20111;-83
2022/01/06 04:27:46;;;;;;;31.15;3.97;;;;;;;1.09;96.52;101678.13;5085337;28;20051;-83
2022/01/06 04:30:12;;;;;;;27.65;3.45;;;;;;;1.08;97.00;101676.44;5088102;28;20087;-83
2022/01/06 04:32:38;;;;;;;22.77;3.83;;;;;;;1.09;96.29;101672.09;5084194;28;20101;-83
2022/01/06 04:35:04;;;;;;;20.02;3.40;;;;;;;1.06;96.67;101674.75;5077410;28;20077;-83
2022/01/06 04:37:31;;;;;;;29.73;3.88;;;;;;;1.07;96.80;101679.91;5078951;28;20572;-83
2022/01/06 04:39:56;;;;;;;24.08;3.70;;;;;;;1.05;96.53;101673.91;5070089;28;20044;-83
2022/01/06 04:42:22;;;;;;;22.05;3.92;;;;;;;1.07;95.92;101673.88;5072285;28;20028;-83
2022/01/06 04:44:47;;;;;;;22.13;3.88;;;;;;;1.02;96.48;101679.16;5089346;28;20016;-83
2022/01/06 04:47:12;;;;;;;25.10;3.60;;;;;;;1.03;96.39;101688.63;5087419;28;20421;-83
2022/01/06 04:49:38;;;;;;;22.58;3.50;;;;;;;1.02;96.41;101691.25;5080521;28;20314;-83
2022/01/06 04:52:03;;;;;;;20.35;3.40;;;;;;;1.01;96.55;101689.56;5083271;28;20028;-83
2022/01/06 04:54:29;;;;;;;16.67;3.47;;;;;;;0.96;96.66;101676.69;5090205;28;20024;-83
2022/01/06 04:56:54;;;;;;;21.70;3.72;;;;;;;0.99;96.70;101691.31;5073432;28;20033;-83
2022/01/06 04:59:19;;;;;;;22.15;3.55;;;;;;;0.95;96.61;101685.34;5069803;28;20089;-83
2022/01/06 05:01:45;;;;;;;20.98;3.67;;;;;;;0.93;96.18;101687.13;5099360;28;20027;-84
2022/01/06 05:04:10;;;;;;;23.45;4.22;;;;;;;0.91;96.26;101689.75;5083000;28;20017;-83
2022/01/06 05:06:35;;;;;;;17.05;3.55;;;;;;;0.88;96.89;101694.16;5070846;28;20054;-83
2022/01/06 05:09:02;;;;;;;24.05;3.92;;;;;;;0.86;96.24;101695.91;5088444;28;20124;-83
2022/01/06 05:11:27;;;;;;;24.83;4.40;;;;;;;0.82;96.18;101697.72;5089367;28;20413;-82
2022/01/06 05:13:53;;;;;;;19.88;3.70;;;;;;;0.79;96.21;101705.53;5087594;28;20044;-83
2022/01/06 05:16:19;;;;;;;21.15;3.35;;;;;;;0.79;96.49;101704.66;5073476;28;20028;-83
2022/01/06 05:18:45;;;;;;;19.25;3.45;;;;;;;0.75;96.36;101710.78;5093548;28;20075;-82
2022/01/06 05:21:10;;;;;;;17.75;2.85;;;;;;;0.72;96.39;101703.09;5069663;28;20166;-82
2022/01/06 05:23:36;;;;;;;16.02;3.40;;;;;;;0.73;96.38;101704.78;5080858;28;20119;-82
2022/01/06 05:26:01;;;;;;;20.60;3.22;;;;;;;0.72;95.97;101709.13;5088895;28;20073;-82
2022/01/06 05:28:26;;;;;;;21.23;3.20;;;;;;;0.70;96.16;101710.03;5077997;28;20499;-83
2022/01/06 05:30:52;;;;;;;16.60;3.35;;;;;;;0.67;95.93;101710.09;5069334;28;20099;-85
2022/01/06 05:33:18;;;;;;;15.18;3.60;;;;;;;0.63;95.73;101715.34;5086179;28;20028;-84
2022/01/06 05:35:43;;;;;;;16.73;3.65;;;;;;;0.58;96.19;101722.34;5087043;28;20028;-85
2022/01/06 05:38:09;;;;;;;23.23;3.45;;;;;;;0.55;95.66;101721.53;5083998;28;20028;-86
2022/01/06 05:40:34;;;;;;;18.40;3.42;;;;;;;0.53;96.05;101733.66;5088551;28;20528;-85
2022/01/06 05:43:00;;;;;;;22.00;3.80;;;;;;;0.50;95.94;101729.41;5089385;28;20038;-85
2022/01/06 05:45:26;;;;;;;18.38;3.00;;;;;;;0.48;96.30;101731.16;5103546;28;20028;-85
2022/01/06 05:47:51;;;;;;;17.77;4.10;;;;;;;0.48;96.50;101740.66;5088359;28;20032;-85
2022/01/06 05:50:17;;;;;;;18.52;3.63;;;;;;;0.43;95.65;101733.00;5087125;28;20551;-85
2022/01/06 05:52:42;;;;;;;14.90;3.20;;;;;;;0.43;95.60;101733.00;5088352;28;20063;-84
2022/01/06 05:55:08;;;;;;;17.85;3.60;;;;;;;0.41;95.48;101739.94;5078966;28;20103;-86
2022/01/06 05:57:33;;;;;;;18.42;3.08;;;;;;;0.40;96.13;101745.97;5072836;28;20369;-85
2022/01/06 05:59:59;;;;;;;13.15;2.90;;;;;;;0.37;96.04;101752.91;5072664;28;20028;-85
2022/01/06 06:02:24;;;;;;;15.73;3.30;;;;;;;0.36;95.96;101746.88;5078068;28;20032;-85
2022/01/06 06:04:50;;;;;;;17.17;3.15;;;;;;;0.34;95.59;101766.78;5091992;28;20031;-85
2022/01/06 06:07:17;;;;;;;20.20;3.70;;;;;;;0.30;95.63;101762.53;5087570;28;20027;-85
2022/01/06 06:09:43;;;;;;;22.77;3.38;;;;;;;0.33;96.40;101765.06;5075298;28;20105;-85
2022/01/06 06:12:09;;;;;;;18.33;3.72;;;;;;;0.32;96.22;101766.78;5078137;28;20051;-85
2022/01/06 06:14:34;;;;;;;23.08;3.85;;;;;;;0.31;96.53;101772.00;5076560;28;20025;-84
2022/01/06 06:16:59;;;;;;;12.88;2.95;;;;;;;0.31;96.32;101772.00;5087141;28;20047;-85
2022/01/06 06:19:25;;;;;;;18.98;3.72;;;;;;;0.31;96.47;101772.00;5093195;28;20027;-85
2022/01/06 06:21:50;;;;;;;16.30;3.50;;;;;;;0.30;96.53;101775.47;5092547;28;20051;-85
2022/01/06 06:24:15;;;;;;;14.65;3.53;;;;;;;0.29;96.39;101779.78;5085195;28;20035;-85
2022/01/06 06:26:44;;;;;;;20.48;3.97;;;;;;;0.27;96.84;101778.97;5093338;28;20024;-85
2022/01/06 06:29:09;;;;;;;16.92;3.70;;;;;;;0.23;96.34;101772.13;5080429;28;20028;-85
2022/01/06 06:31:34;;;;;;;22.92;3.90;;;;;;;0.22;96.10;101783.38;5072646;28;20420;-85
2022/01/06 06:34:00;;;;;;;15.95;3.65;;;;;;;0.19;96.62;101786.00;5072605;28;20497;-85
2022/01/06 06:36:25;;;;;;;19.08;3.65;;;;;;;0.18;96.11;101788.63;5090705;28;20035;-85
2022/01/06 06:38:50;;;;;;;21.70;4.35;;;;;;;0.16;95.85;101787.78;5091158;28;20024;-85
2022/01/06 06:41:15;;;;;;;22.30;4.32;;;;;;;0.14;96.50;101786.97;5086963;28;20678;-85
2022/01/06 06:43:43;;;;;;;18.65;4.75;;;;;;;0.13;96.37;101790.44;5090449;28;20038;-85
2022/01/06 06:46:09;;;;;;;21.35;4.50;;;;;;;0.07;96.52;101787.94;5092608;28;20388;-85
2022/01/06 06:48:34;;;;;;;18.00;4.13;;;;;;;0.06;96.19;101799.16;5090953;28;20023;-84
2022/01/06 06:51:02;;;;;;;19.05;4.32;;;;;;;0.07;96.46;101795.69;5090320;28;20081;-85
2022/01/06 06:53:27;;;;;;;16.70;4.18;;;;;;;0.04;96.11;101800.94;5089964;28;20020;-85
2022/01/06 06:55:52;;;;;;;27.58;4.05;;;;;;;0.02;96.44;101800.09;5091484;28;20089;-84
2022/01/06 06:58:18;;;;;;;21.80;4.13;;;;;;;0.04;96.41;101811.28;5088166;28;20111;-84
2022/01/06 07:00:43;;;;;;;19.63;3.85;;;;;;;0.04;96.04;101816.44;5088469;28;20028;-86
2022/01/06 07:03:08;;;;;;;17.70;3.78;;;;;;;0.01;96.44;101807.00;5077942;28;20056;-84
2022/01/06 07:05:35;;;;;;;17.92;3.95;;;;;;;-0.01;96.47;101813.91;5088002;28;20035;-84
2022/01/06 07:08:00;;;;;;;19.85;4.75;;;;;;;-0.02;96.16;101818.22;5087814;28;20020;-85
2022/01/06 07:10:25;;;;;;;19.13;3.58;;;;;;;-0.04;96.47;101822.56;5091539;28;20501;-84
2022/01/06 07:12:51;;;;;;;21.75;3.95;;;;;;;-0.06;96.58;101816.56;5090908;28;20028;-85
2022/01/06 07:15:17;;;;;;;17.17;3.92;;;;;;;-0.04;96.51;101825.16;5078079;28;20045;-85
2022/01/06 07:17:43;;;;;;;14.25;3.80;;;;;;;-0.09;96.40;101821.78;5090191;28;20031;-85
2022/01/06 07:20:09;;;;;;;14.48;3.90;;;;;;;-0.09;96.40;101829.53;5087890;28;20386;-84
2022/01/06 07:22:34;;;;;;;15.93;3.75;;;;;;;-0.11;96.45;101838.19;5087535;28;20031;-84
2022/01/06 07:25:01;;;;;;;22.20;4.15;;;;;;;-0.11;96.00;101838.19;5084289;28;20039;-84
2022/01/06 07:27:27;;;;;;;18.85;3.70;;;;;;;-0.13;97.08;101840.81;5072938;28;20025;-84
2022/01/06 07:29:52;;;;;;;18.65;3.63;;;;;;;-0.12;97.22;101850.28;5107954;28;20035;-84
2022/01/06 07:32:17;;;;;;;17.35;4.40;;;;;;;-0.13;96.71;101839.94;5084393;28;20453;-84
2022/01/06 07:34:43;;;;;;;20.15;3.67;;;;;;;-0.16;96.72;101840.84;5077384;28;20042;-84
2022/01/06 07:37:08;;;;;;;19.77;3.92;;;;;;;-0.14;96.92;101854.59;5091331;28;20373;-84
2022/01/06 07:39:33;;;;;;;16.98;3.72;;;;;;;-0.18;96.52;101852.94;5088504;28;20024;-84
2022/01/06 07:41:59;;;;;;;17.10;3.67;;;;;;;-0.17;96.40;101854.66;5079889;28;20464;-84
2022/01/06 07:44:25;;;;;;;17.20;3.83;;;;;;;-0.17;97.05;101849.47;5089269;28;20057;-84
2022/01/06 07:46:50;;;;;;;14.82;3.85;;;;;;;-0.18;97.10;101846.91;5089936;28;20383;-84
2022/01/06 07:49:15;;;;;;;21.20;3.75;;;;;;;-0.15;96.86;101852.03;5091055;28;20059;-84
2022/01/06 07:51:41;;;;;;;20.70;4.07;;;;;;;-0.15;97.19;101847.72;5090772;28;20024;-84
2022/01/06 07:54:07;;;;;;;20.80;4.28;;;;;;;-0.14;96.74;101849.44;5089981;28;20055;-84
2022/01/06 07:56:33;;;;;;;25.33;4.50;;;;;;;-0.16;96.77;101851.19;5090285;28;20483;-84
2022/01/06 07:58:58;;;;;;;20.42;4.28;;;;;;;-0.14;97.31;101857.19;5083366;28;20020;-84
2022/01/06 08:01:24;;;;;;;25.13;4.13;;;;;;;-0.16;97.49;101851.19;5086466;28;20024;-84
2022/01/06 08:03:50;;;;;;;26.48;4.70;;;;;;;-0.14;98.00;101856.34;5090939;28;20024;-84
2022/01/06 08:06:16;;;;;;;19.65;4.55;;;;;;;-0.16;97.58;101858.09;5089810;28;20065;-84
2022/01/06 08:08:42;;;;;;;26.98;5.40;;;;;;;-0.14;98.00;101862.38;5090533;28;20028;-84
2022/01/06 08:11:08;;;;;;;21.02;4.53;;;;;;;-0.13;97.80;101861.50;5090846;28;20024;-84
2022/01/06 08:13:34;;;;;;;18.02;4.38;;;;;;;-0.11;98.06;101858.88;5089143;28;20022;-84
2022/01/06 08:15:59;;;;;;;22.67;6.30;;;;;;;-0.11;98.35;101870.09;5088176;28;20101;-84
2022/01/06 08:18:25;;;;;;;21.98;6.28;;;;;;;-0.11;98.19;101859.75;5071285;28;20024;-84
2022/01/06 08:20:50;;;;;;;16.35;6.13;;;;;;;-0.06;98.30;101872.59;5074656;28;20052;-84
2022/01/06 08:23:18;;;;;;;25.45;7.45;;;;;;;-0.09;98.46;101873.50;5079163;28;20016;-84
2022/01/06 08:25:43;;;;;;;28.35;7.03;;;;;;;-0.05;98.55;101875.16;5080817;28;20024;-84
2022/01/06 08:28:10;;;;;;;29.35;7.35;;;;;;;-0.05;98.50;101875.16;5090582;28;20528;-84
2022/01/06 08:30:35;;;;;;;23.25;7.22;;;;;;;-0.06;98.54;101868.28;5078311;28;20024;-84
2022/01/06 08:33:01;;;;;;;22.90;7.78;;;;;;;-0.02;98.51;101874.28;5075566;28;20059;-84
2022/01/06 08:35:27;;;;;;;25.85;7.63;;;;;;;0.00;98.29;101875.13;5080767;28;20068;-84
2022/01/06 08:37:53;;;;;;;30.52;8.73;;;;;;;0.01;98.85;101876.00;5078214;28;20024;-84
2022/01/06 08:40:18;;;;;;;21.92;8.60;;;;;;;0.03;98.83;101869.91;5069839;28;20035;-84
2022/01/06 08:42:46;;;;;;;30.27;8.82;;;;;;;0.08;98.93;101885.38;5069554;28;20517;-84
2022/01/06 08:45:16;;;;;;;30.60;8.60;;;;;;;0.10;98.54;101879.28;5070159;28;20173;-83
2022/01/06 08:47:42;;;;;;;28.92;9.80;;;;;;;0.12;99.03;101879.28;5086598;28;20081;-84
2022/01/06 08:50:08;;;;;;;25.13;9.23;;;;;;;0.11;99.10;101881.00;5088769;28;20028;-84
2022/01/06 08:52:36;;;;;;;31.30;10.05;;;;;;;0.14;99.82;101895.63;5087267;28;20494;-84
2022/01/06 08:55:03;;;;;;;30.48;9.60;;;;;;;0.18;99.92;101894.72;5104227;28;20032;-84
2022/01/06 08:57:28;;;;;;;29.67;10.88;;;;;;;0.17;99.47;101891.25;5068049;28;20025;-84
2022/01/06 08:59:54;;;;;;;32.65;10.93;;;;;;;0.20;99.46;101888.63;5068984;28;20043;-86
2022/01/06 09:02:22;;;;;;;38.63;10.95;;;;;;;0.24;99.82;101898.06;5073071;28;20107;-84
2022/01/06 09:04:48;;;;;;;34.53;11.82;;;;;;;0.28;99.58;101897.13;5090584;28;20603;-83
2022/01/06 09:07:13;;;;;;;34.85;11.60;;;;;;;0.33;99.96;101907.41;5088705;28;20108;-84
2022/01/06 09:09:41;;;;;;;36.03;12.05;;;;;;;0.35;100.00;101895.31;5088324;28;20595;-84
2022/01/06 09:12:08;;;;;;;34.45;12.43;;;;;;;0.37;100.00;101896.13;5088967;28;20035;-83
2022/01/06 09:14:34;;;;;;;33.33;11.90;;;;;;;0.42;100.00;101906.44;5073258;28;20107;-84
2022/01/06 09:17:00;;;;;;;34.38;12.82;;;;;;;0.46;100.00;101908.97;5075364;28;20421;-83
2022/01/06 09:19:26;;;;;;;42.90;12.80;;;;;;;0.50;100.00;101908.03;5104159;28;20666;-83
2022/01/06 09:21:51;;;;;;;31.92;12.43;;;;;;;0.54;100.00;101907.09;5104454;28;20172;-83
2022/01/06 09:24:18;;;;;;;35.00;12.52;;;;;;;0.60;100.00;101914.78;5080604;28;20028;-83
2022/01/06 09:26:43;;;;;;;28.00;11.77;;;;;;;0.65;100.00;101919.03;5081117;28;20031;-83
2022/01/06 09:29:09;;;;;;;37.50;11.65;;;;;;;0.68;100.00;101913.78;5093587;28;20033;-84
2022/01/06 09:31:36;;;;;;;39.00;12.38;;;;;;;0.74;100.00;101913.69;5068330;28;20453;-86
2022/01/06 09:34:03;;;;;;;34.28;11.25;;;;;;;0.77;100.00;101916.22;5069522;28;20036;-86
2022/01/06 09:36:29;;;;;;;30.27;11.73;;;;;;;0.86;100.00;101929.06;5068850;28;20044;-86
2022/01/06 09:38:56;;;;;;;32.13;11.25;;;;;;;0.90;100.00;101930.72;5068186;28;20456;-86
2022/01/06 09:41:23;;;;;;;33.28;12.88;;;;;;;0.98;100.00;101928.00;5085739;28;20028;-86
2022/01/06 09:43:55;;;;;;;35.45;11.48;;;;;;;1.02;100.00;101935.69;5089295;28;20409;-86
2022/01/06 09:46:21;;;;;;;37.03;11.90;;;;;;;1.08;100.00;101932.13;5087820;28;20421;-88
2022/01/06 09:48:47;;;;;;;43.25;12.63;;;;;;;1.13;100.00;101932.91;5088844;28;20031;-83
2022/01/06 09:51:13;;;;;;;32.97;11.68;;;;;;;1.18;100.00;101929.34;5086540;28;20023;-83
2022/01/06 09:53:38;;;;;;;38.10;11.45;;;;;;;1.25;100.00;101932.69;5087022;28;20101;-83
2022/01/06 09:56:04;;;;;;;26.73;10.68;;;;;;;1.29;100.00;101936.09;5084691;28;20476;-83
2022/01/06 09:58:30;;;;;;;27.50;10.45;;;;;;;1.34;100.00;101932.53;5068404;28;20029;-83
2022/01/06 10:00:56;;;;;;;30.52;10.77;;;;;;;1.42;100.00;101937.56;5067809;28;20039;-83
2022/01/06 10:03:33;;;;;;;30.70;10.68;;;;;;;1.46;100.00;101923.66;5068560;28;20134;-83
2022/01/06 10:06:19;;;;;;;36.55;10.85;;;;;;;1.57;100.00;101934.69;5068499;28;20063;-83
2022/01/06 10:08:56;;;;;;;31.75;10.70;;;;;;;1.59;100.00;101932.91;5080650;28;20089;-83
2022/01/06 10:11:24;;;;;;;25.42;9.88;;;;;;;1.67;100.00;101930.19;5087403;28;20082;-83
2022/01/06 10:14:00;;;;;;;35.20;10.55;;;;;;;1.75;100.00;101931.72;5078998;28;20190;-83
2022/01/06 10:16:29;;;;;;;19.88;9.07;;;;;;;1.80;100.00;101929.91;5068788;28;20107;-83
2022/01/06 10:18:55;;;;;;;31.52;9.20;;;;;;;1.88;100.00;101929.75;5069448;28;20431;-82
2022/01/06 10:21:21;;;;;;;28.58;9.70;;;;;;;1.95;100.00;101925.28;5066932;28;20048;-83
2022/01/06 10:24:10;;;;;;;34.85;9.73;;;;;;;2.01;100.00;101930.34;5069202;28;20052;-83
2022/01/06 10:26:49;;;;;;;28.90;9.85;;;;;;;2.06;100.00;101928.53;5087431;28;20050;-83
2022/01/06 10:29:18;;;;;;;26.90;9.68;;;;;;;2.13;100.00;101919.72;5080347;28;20020;-83
2022/01/06 10:31:44;;;;;;;30.75;9.98;;;;;;;2.22;100.00;101927.28;5078094;28;20032;-83
2022/01/06 10:34:09;;;;;;;35.53;9.63;;;;;;;2.32;100.00;101922.72;5078330;28;20019;-83
2022/01/06 10:36:39;;;;;;;31.33;10.18;;;;;;;2.39;100.00;101922.56;5083328;28;20092;-83
2022/01/06 10:39:08;;;;;;;30.90;9.07;;;;;;;2.46;100.00;101918.97;5079197;28;20044;-84
2022/01/06 10:41:35;;;;;;;32.83;9.32;;;;;;;2.54;100.00;101928.31;5080778;28;20020;-86
2022/01/06 10:44:01;;;;;;;28.55;8.70;;;;;;;2.59;100.00;101929.91;5082859;28;20381;-83
2022/01/06 10:46:39;;;;;;;28.50;9.15;;;;;;;2.65;100.00;101915.91;5081882;28;20026;-83
2022/01/06 10:49:14;;;;;;;29.27;8.88;;;;;;;2.66;100.00;101915.03;5090101;28;20384;-83
2022/01/06 10:51:40;;;;;;;22.13;8.18;;;;;;;2.74;100.00;101918.28;5092836;28;20050;-82
2022/01/06 10:54:23;;;;;;;26.33;7.88;;;;;;;2.81;100.00;101919.88;5094187;28;20038;-82
2022/01/06 10:56:56;;;;;;;;;;;;;;;2.88;100.00;101913.63;5072208;28;20093;-83
2022/01/06 10:59:29;;;;;;;19.25;7.57;;;;;;;2.91;100.00;101921.34;5071906;28;19947;-83
2022/01/06 11:01:54;;;;;;;30.08;8.05;;;;;;;2.99;100.00;101922.00;5070213;28;20107;-83
2022/01/06 11:04:20;;;;;;;31.05;8.23;;;;;;;3.00;100.00;101915.91;5071441;28;20555;-83
2022/01/06 11:06:45;;;;;;;25.02;7.68;;;;;;;3.08;100.00;101910.50;5074968;28;20027;-83
2022/01/06 11:09:14;;;;;;;22.13;7.35;;;;;;;3.14;99.78;101903.38;5074675;28;20030;-84
2022/01/06 11:14:17;;;;;;;22.35;7.20;;;;;;;3.26;99.53;101901.38;5086612;28;20032;-84
2022/01/06 11:16:44;;;;;;;27.40;6.75;;;;;;;3.28;98.98;101899.59;5080494;28;20031;-84
2022/01/06 11:19:14;;;;;;;25.15;7.80;;;;;;;3.35;98.83;101898.53;5071824;28;20048;-83
2022/01/06 11:21:44;;;;;;;23.38;7.30;;;;;;;3.40;98.32;101894.06;5071803;28;20257;-84
2022/01/06 11:24:23;;;;;;;24.45;7.18;;;;;;;3.47;97.87;101895.59;5070842;28;20390;-84
2022/01/06 11:27:04;;;;;;;23.77;6.80;;;;;;;3.55;98.13;101905.78;5070574;28;20033;-85
2022/01/06 11:29:35;;;;;;;21.85;7.10;;;;;;;3.58;97.78;101896.13;5083196;28;20055;-84
2022/01/06 11:32:16;;;;;;;17.52;7.25;;;;;;;3.67;98.40;101901.09;5090818;28;20120;-84